Alexander 3 — SW6137 — position and weather

sailwx.info

Track history (hours):
 
Tides and Currents Weather Stations Pressure Air Temp Water Temp Dewpoint Dewpoint Depression Visibility Wind Speed Wind Dir Waves Ship Positions

Alexander 3

Last reported at 2016-May-27 15:33 UTC. Time now 2016-May-27 16:15 UTC.
Position N 38°02' E 023°31'.

Length 38 m; draft 5.6 m.

Type: Tug. MMSI: 240733000.

Date/timePositionNaut miles runAvg speedWind from/ knotsBaromVisibWave heightAir tempDewpointWater temp
2016-May-27 15:33N 38°02' E 023°31'0 0.0
2016-May-27 14:34N 38°02' E 023°31'0 0.0
2016-May-27 13:33N 38°02' E 023°31'0 0.2
2016-May-27 12:33N 38°02' E 023°31'2 1.6
2016-May-27 11:33N 38°01' E 023°30'0 0.3
2016-May-27 10:34N 38°00' E 023°31'1 1.5
2016-May-27 09:33N 37°60' E 023°32'4 3.6
2016-May-27 08:33N 37°57' E 023°35'1 0.8
2016-May-27 07:33N 37°57' E 023°36'1 0.6
2016-May-27 06:33N 37°57' E 023°36'0 0.0
2016-May-27 05:33N 37°57' E 023°36'1 0.7
2016-May-27 04:33N 37°57' E 023°35'1 0.7
2016-May-27 03:33N 37°57' E 023°36'0 0.0
2016-May-27 02:33N 37°57' E 023°36'0 0.0
2016-May-27 01:33N 37°57' E 023°36'0 0.0
2016-May-27 00:33N 37°57' E 023°36'0 0.0
2016-May-26 23:34N 37°57' E 023°36'0 0.0
2016-May-26 22:33N 37°57' E 023°36'0 0.3
2016-May-26 21:33N 37°57' E 023°36'1 0.5
2016-May-26 20:33N 37°57' E 023°35'1 1.1
2016-May-26 19:33N 37°57' E 023°37'0 0.0
2016-May-26 18:34N 37°57' E 023°37'0 0.0
2016-May-26 17:33N 37°57' E 023°37'0 0.0
2016-May-26 16:33N 37°57' E 023°37'0 0.0
2016-May-26 15:33N 37°57' E 023°37'0 0.0
2016-May-26 14:33N 37°57' E 023°37'0 0.0
2016-May-26 13:34N 37°57' E 023°37'0 0.0
2016-May-26 12:34N 37°57' E 023°37'0 0.0
2016-May-26 11:33N 37°57' E 023°37'0 0.0
2016-May-26 10:34N 37°57' E 023°37'1 1.3
2016-May-26 09:33N 37°57' E 023°35'0 0.5
2016-May-26 08:34N 37°57' E 023°36'0 0.0
2016-May-26 07:34N 37°57' E 023°36'1 1.5
2016-May-26 06:34N 37°58' E 023°34'2 2.1
2016-May-26 05:34N 37°57' E 023°36'1 1.1
2016-May-26 04:34N 37°56' E 023°37'0 0.2
2016-May-26 03:33N 37°56' E 023°37'0 0.1
2016-May-26 02:34N 37°56' E 023°37'1 0.1
2016-May-25 10:33N 37°57' E 023°36'0 0.1
2016-May-25 09:33N 37°57' E 023°36'0 0.0
2016-May-25 08:33N 37°57' E 023°36'0 0.0
2016-May-25 07:33N 37°57' E 023°36'0 0.0
2016-May-25 06:33N 37°57' E 023°36'0 0.0
2016-May-25 05:33N 37°57' E 023°36'6 5.8
2016-May-25 04:33N 37°52' E 023°40'2 2.2
2016-May-25 03:34N 37°54' E 023°39'2 0.1
2016-May-24 11:26N 37°56' E 023°37'1 1.6
2016-May-24 10:33N 37°57' E 023°36'0 0.0
2016-May-24 09:33N 37°57' E 023°36'0 0.0
2016-May-24 08:33N 37°57' E 023°36'0 0.0
2016-May-24 07:33N 37°57' E 023°36'0 0.0
2016-May-24 06:33N 37°57' E 023°36'0 0.0
2016-May-24 05:33N 37°57' E 023°36'2 1.6
2016-May-24 04:33N 37°56' E 023°38'0 0.4
2016-May-24 03:33N 37°56' E 023°37'0 0.1
2016-May-24 02:34N 37°56' E 023°37'0 0.0
2016-May-22 10:33N 37°56' E 023°37'0 0.0
2016-May-22 09:33N 37°56' E 023°37'0 0.0
2016-May-22 08:33N 37°56' E 023°37'1 1.2
2016-May-22 07:33N 37°57' E 023°36'1 0.6
2016-May-22 06:33N 37°57' E 023°35'2 2.0
2016-May-22 05:34N 37°55' E 023°35'1 0.7
2016-May-22 04:34N 37°56' E 023°35'2 2.1
2016-May-22 03:33N 37°56' E 023°37'0 0.0
2016-May-22 02:33N 37°56' E 023°37'0 0.0
2016-May-22 01:33N 37°56' E 023°37'0 0.0
2016-May-22 00:33N 37°56' E 023°37'0 0.0
2016-May-21 23:33N 37°56' E 023°37'0 0.0
2016-May-21 22:33N 37°56' E 023°37'0 0.0
2016-May-21 21:33N 37°56' E 023°37'0 0.0
2016-May-21 20:33N 37°56' E 023°37'0 0.0
2016-May-21 19:33N 37°56' E 023°37'2 1.9
2016-May-21 18:33N 37°57' E 023°35'1 1.2
2016-May-21 17:33N 37°57' E 023°37'0 0.0
2016-May-21 16:33N 37°57' E 023°37'0 0.0
2016-May-21 15:33N 37°57' E 023°37'1 0.7
2016-May-21 14:34N 37°57' E 023°36'1 0.7
2016-May-21 13:34N 37°57' E 023°37'0 0.0
2016-May-21 12:33N 37°57' E 023°37'1 1.2
2016-May-21 11:34N 37°57' E 023°35'1 1.2
2016-May-21 10:33N 37°57' E 023°37'0 0.0
2016-May-21 09:34N 37°57' E 023°37'0 0.0
2016-May-21 08:33N 37°57' E 023°37'0 0.0
2016-May-21 07:33N 37°57' E 023°37'0 0.0
2016-May-21 06:34N 37°57' E 023°37'0 0.0
2016-May-21 05:33N 37°57' E 023°37'0 0.0
2016-May-21 04:33N 37°57' E 023°37'1 0.9
2016-May-21 03:33N 37°57' E 023°36'1 0.1
2016-May-20 12:33N 37°56' E 023°37'1 1.5
2016-May-20 11:33N 37°57' E 023°37'0 0.0
2016-May-20 10:33N 37°57' E 023°37'0 0.0
2016-May-20 09:33N 37°57' E 023°37'0 0.0
2016-May-20 08:33N 37°57' E 023°37'1 0.8
2016-May-20 07:33N 37°57' E 023°37'0 0.0
2016-May-20 06:33N 37°57' E 023°37'0 0.0
2016-May-20 05:33N 37°57' E 023°37'1 0.7
2016-May-20 04:33N 37°56' E 023°37'0 0.0
2016-May-20 03:33N 37°56' E 023°37'0 0.0
2016-May-18 10:33N 37°56' E 023°37'1 1.3
2016-May-18 09:34N 37°57' E 023°37'1 0.7
2016-May-18 08:34N 37°57' E 023°36'1 0.7
2016-May-18 07:33N 37°57' E 023°37'0 0.0
2016-May-18 06:33N 37°57' E 023°37'0 0.0
2016-May-18 05:33N 37°57' E 023°37'0 0.0
2016-May-18 04:33N 37°57' E 023°37'0 0.0
2016-May-18 03:34N 37°57' E 023°37'0 0.0
2016-May-18 02:33N 37°57' E 023°37'0 0.0
2016-May-18 01:33N 37°57' E 023°37'0 0.0
2016-May-18 00:34N 37°57' E 023°37'0 0.0
2016-May-17 23:34N 37°57' E 023°37'0 0.0
2016-May-17 22:33N 37°57' E 023°37'2 1.7
2016-May-17 21:34N 37°56' E 023°36'1 0.8
2016-May-17 20:33N 37°56' E 023°37'0 0.0
2016-May-17 19:34N 37°56' E 023°37'0 0.0
2016-May-17 18:33N 37°56' E 023°37'0 0.0
2016-May-17 17:33N 37°56' E 023°37'0 0.0
2016-May-17 16:33N 37°56' E 023°37'  
Track history (hours):
 
Tides and Currents Weather Stations Pressure Air Temp Water Temp Dewpoint Dewpoint Depression Visibility Wind Speed Wind Dir Waves Ship Positions

Alexander 3

Last reported at 2016-May-27 15:33 UTC. Time now 2016-May-27 16:15 UTC.
Position N 38°02' E 023°31'.

Length 38 m; draft 5.6 m.

Type: Tug. MMSI: 240733000.

Date/timePositionNaut miles runAvg speedWind from/ knotsBaromVisibWave heightAir tempDewpointWater temp
2016-May-27 15:33N 38°02' E 023°31'0 0.0
2016-May-27 14:34N 38°02' E 023°31'0 0.0
2016-May-27 13:33N 38°02' E 023°31'0 0.2
2016-May-27 12:33N 38°02' E 023°31'2 1.6
2016-May-27 11:33N 38°01' E 023°30'0 0.3
2016-May-27 10:34N 38°00' E 023°31'1 1.5
2016-May-27 09:33N 37°60' E 023°32'4 3.6
2016-May-27 08:33N 37°57' E 023°35'1 0.8
2016-May-27 07:33N 37°57' E 023°36'1 0.6
2016-May-27 06:33N 37°57' E 023°36'0 0.0
2016-May-27 05:33N 37°57' E 023°36'1 0.7
2016-May-27 04:33N 37°57' E 023°35'1 0.7
2016-May-27 03:33N 37°57' E 023°36'0 0.0
2016-May-27 02:33N 37°57' E 023°36'0 0.0
2016-May-27 01:33N 37°57' E 023°36'0 0.0
2016-May-27 00:33N 37°57' E 023°36'0 0.0
2016-May-26 23:34N 37°57' E 023°36'0 0.0
2016-May-26 22:33N 37°57' E 023°36'0 0.3
2016-May-26 21:33N 37°57' E 023°36'1 0.5
2016-May-26 20:33N 37°57' E 023°35'1 1.1
2016-May-26 19:33N 37°57' E 023°37'0 0.0
2016-May-26 18:34N 37°57' E 023°37'0 0.0
2016-May-26 17:33N 37°57' E 023°37'0 0.0
2016-May-26 16:33N 37°57' E 023°37'0 0.0
2016-May-26 15:33N 37°57' E 023°37'0 0.0
2016-May-26 14:33N 37°57' E 023°37'0 0.0
2016-May-26 13:34N 37°57' E 023°37'0 0.0
2016-May-26 12:34N 37°57' E 023°37'0 0.0
2016-May-26 11:33N 37°57' E 023°37'0 0.0
2016-May-26 10:34N 37°57' E 023°37'1 1.3
2016-May-26 09:33N 37°57' E 023°35'0 0.5
2016-May-26 08:34N 37°57' E 023°36'0 0.0
2016-May-26 07:34N 37°57' E 023°36'1 1.5
2016-May-26 06:34N 37°58' E 023°34'2 2.1
2016-May-26 05:34N 37°57' E 023°36'1 1.1
2016-May-26 04:34N 37°56' E 023°37'0 0.2
2016-May-26 03:33N 37°56' E 023°37'0 0.1
2016-May-26 02:34N 37°56' E 023°37'1 0.1
2016-May-25 10:33N 37°57' E 023°36'0 0.1
2016-May-25 09:33N 37°57' E 023°36'0 0.0
2016-May-25 08:33N 37°57' E 023°36'0 0.0
2016-May-25 07:33N 37°57' E 023°36'0 0.0
2016-May-25 06:33N 37°57' E 023°36'0 0.0
2016-May-25 05:33N 37°57' E 023°36'6 5.8
2016-May-25 04:33N 37°52' E 023°40'2 2.2
2016-May-25 03:34N 37°54' E 023°39'2 0.1
2016-May-24 11:26N 37°56' E 023°37'1 1.6
2016-May-24 10:33N 37°57' E 023°36'0 0.0
2016-May-24 09:33N 37°57' E 023°36'0 0.0
2016-May-24 08:33N 37°57' E 023°36'0 0.0
2016-May-24 07:33N 37°57' E 023°36'0 0.0
2016-May-24 06:33N 37°57' E 023°36'0 0.0
2016-May-24 05:33N 37°57' E 023°36'2 1.6
2016-May-24 04:33N 37°56' E 023°38'0 0.4
2016-May-24 03:33N 37°56' E 023°37'0 0.1
2016-May-24 02:34N 37°56' E 023°37'0 0.0
2016-May-22 10:33N 37°56' E 023°37'0 0.0
2016-May-22 09:33N 37°56' E 023°37'0 0.0
2016-May-22 08:33N 37°56' E 023°37'1 1.2
2016-May-22 07:33N 37°57' E 023°36'1 0.6
2016-May-22 06:33N 37°57' E 023°35'2 2.0
2016-May-22 05:34N 37°55' E 023°35'1 0.7
2016-May-22 04:34N 37°56' E 023°35'2 2.1
2016-May-22 03:33N 37°56' E 023°37'0 0.0
2016-May-22 02:33N 37°56' E 023°37'0 0.0
2016-May-22 01:33N 37°56' E 023°37'0 0.0
2016-May-22 00:33N 37°56' E 023°37'0 0.0
2016-May-21 23:33N 37°56' E 023°37'0 0.0
2016-May-21 22:33N 37°56' E 023°37'0 0.0
2016-May-21 21:33N 37°56' E 023°37'0 0.0
2016-May-21 20:33N 37°56' E 023°37'0 0.0
2016-May-21 19:33N 37°56' E 023°37'2 1.9
2016-May-21 18:33N 37°57' E 023°35'1 1.2
2016-May-21 17:33N 37°57' E 023°37'0 0.0
2016-May-21 16:33N 37°57' E 023°37'0 0.0
2016-May-21 15:33N 37°57' E 023°37'1 0.7
2016-May-21 14:34N 37°57' E 023°36'1 0.7
2016-May-21 13:34N 37°57' E 023°37'0 0.0
2016-May-21 12:33N 37°57' E 023°37'1 1.2
2016-May-21 11:34N 37°57' E 023°35'1 1.2
2016-May-21 10:33N 37°57' E 023°37'0 0.0
2016-May-21 09:34N 37°57' E 023°37'0 0.0
2016-May-21 08:33N 37°57' E 023°37'0 0.0
2016-May-21 07:33N 37°57' E 023°37'0 0.0
2016-May-21 06:34N 37°57' E 023°37'0 0.0
2016-May-21 05:33N 37°57' E 023°37'0 0.0
2016-May-21 04:33N 37°57' E 023°37'1 0.9
2016-May-21 03:33N 37°57' E 023°36'1 0.1
2016-May-20 12:33N 37°56' E 023°37'1 1.5
2016-May-20 11:33N 37°57' E 023°37'0 0.0
2016-May-20 10:33N 37°57' E 023°37'0 0.0
2016-May-20 09:33N 37°57' E 023°37'0 0.0
2016-May-20 08:33N 37°57' E 023°37'1 0.8
2016-May-20 07:33N 37°57' E 023°37'0 0.0
2016-May-20 06:33N 37°57' E 023°37'0 0.0
2016-May-20 05:33N 37°57' E 023°37'1 0.7
2016-May-20 04:33N 37°56' E 023°37'0 0.0
2016-May-20 03:33N 37°56' E 023°37'0 0.0
2016-May-18 10:33N 37°56' E 023°37'1 1.3
2016-May-18 09:34N 37°57' E 023°37'1 0.7
2016-May-18 08:34N 37°57' E 023°36'1 0.7
2016-May-18 07:33N 37°57' E 023°37'0 0.0
2016-May-18 06:33N 37°57' E 023°37'0 0.0
2016-May-18 05:33N 37°57' E 023°37'0 0.0
2016-May-18 04:33N 37°57' E 023°37'0 0.0
2016-May-18 03:34N 37°57' E 023°37'0 0.0
2016-May-18 02:33N 37°57' E 023°37'0 0.0
2016-May-18 01:33N 37°57' E 023°37'0 0.0
2016-May-18 00:34N 37°57' E 023°37'0 0.0
2016-May-17 23:34N 37°57' E 023°37'0 0.0
2016-May-17 22:33N 37°57' E 023°37'2 1.7
2016-May-17 21:34N 37°56' E 023°36'1 0.8
2016-May-17 20:33N 37°56' E 023°37'0 0.0
2016-May-17 19:34N 37°56' E 023°37'0 0.0
2016-May-17 18:33N 37°56' E 023°37'0 0.0
2016-May-17 17:33N 37°56' E 023°37'0 0.0
2016-May-17 16:33N 37°56' E 023°37'  

Dump ship's entire track history